Time;durP1;ratioP1;P1;durP2;ratioP2;P2;SDS_P1;SDS_P2;PMS_P1;PMS_P2;Temp;Humidity;BMP_temperature;BMP_pressure;BME280_temperature;BME280_humidity;BME280_pressure;Samples;Min_cycle;Max_cycle;Signal;HPM_P1;HPM_P2
2022/12/13 00:00:39;;;;;;;31.43;12.13;;;;;;;;;;4972163;28;20042;-85
2022/12/13 00:03:06;;;;;;;29.53;12.40;;;;;;;;;;4971710;28;20035;-86
2022/12/13 00:05:32;;;;;;;31.10;12.87;;;;;;;;;;4971321;28;20038;-85
2022/12/13 00:07:59;;;;;;;26.33;11.97;;;;;;;;;;4970896;28;20535;-84
2022/12/13 00:10:25;;;;;;;30.10;12.20;;;;;;;;;;4971137;28;20077;-87
2022/12/13 00:12:50;;;;;;;39.00;13.17;;;;;;;;;;4956296;29;20031;-86
2022/12/13 00:15:16;;;;;;;25.80;11.60;;;;;;;;;;4955001;29;20035;-85
2022/12/13 00:17:41;;;;;;;34.17;13.70;;;;;;;;;;4970723;28;20061;-85
2022/12/13 00:20:07;;;;;;;30.57;13.60;;;;;;;;;;4955546;29;20059;-85
2022/12/13 00:22:33;;;;;;;31.67;13.53;;;;;;;;;;4955291;28;20442;-86
2022/12/13 00:24:59;;;;;;;27.17;12.97;;;;;;;;;;4971373;28;20165;-84
2022/12/13 00:27:24;;;;;;;28.33;14.07;;;;;;;;;;4956012;29;20027;-85
2022/12/13 00:29:50;;;;;;;33.30;12.77;;;;;;;;;;4971291;28;20057;-85
2022/12/13 00:32:15;;;;;;;30.50;13.30;;;;;;;;;;4953592;29;20038;-85
2022/12/13 00:34:41;;;;;;;38.80;13.60;;;;;;;;;;4954092;29;20039;-84
2022/12/13 00:37:07;;;;;;;29.87;13.23;;;;;;;;;;4954387;29;20031;-84
2022/12/13 00:39:32;;;;;;;33.27;12.70;;;;;;;;;;4970378;28;20027;-85
2022/12/13 00:41:58;;;;;;;31.30;13.63;;;;;;;;;;4954627;29;20457;-85
2022/12/13 00:44:23;;;;;;;30.07;12.20;;;;;;;;;;4970450;28;20022;-85
2022/12/13 00:46:50;;;;;;;30.73;13.07;;;;;;;;;;4970075;28;20110;-85
2022/12/13 00:49:16;;;;;;;24.67;12.67;;;;;;;;;;4954429;29;20774;-86
2022/12/13 00:51:42;;;;;;;26.60;12.70;;;;;;;;;;4955388;28;20034;-85
2022/12/13 00:54:09;;;;;;;33.60;12.23;;;;;;;;;;4954045;28;20027;-85
2022/12/13 00:56:36;;;;;;;29.67;11.37;;;;;;;;;;4970126;28;20450;-85
2022/12/13 00:59:03;;;;;;;31.93;12.77;;;;;;;;;;4954373;29;20058;-85
2022/12/13 01:01:31;;;;;;;29.50;12.63;;;;;;;;;;4953959;28;20028;-84
2022/12/13 01:03:59;;;;;;;27.27;11.77;;;;;;;;;;4970773;28;20027;-84
2022/12/13 01:06:30;;;;;;;34.93;12.10;;;;;;;;;;4970544;28;20114;-85
2022/12/13 01:08:56;;;;;;;29.90;13.48;;;;;;;;;;4955551;29;20097;-85
2022/12/13 01:11:22;;;;;;;33.37;13.33;;;;;;;;;;4954925;29;20039;-84
2022/12/13 01:13:47;;;;;;;29.83;12.57;;;;;;;;;;4970205;28;20535;-83
2022/12/13 01:16:13;;;;;;;33.50;12.67;;;;;;;;;;4954274;29;20077;-85
2022/12/13 01:18:40;;;;;;;37.40;13.63;;;;;;;;;;4954866;29;20027;-84
2022/12/13 01:21:10;;;;;;;37.87;12.70;;;;;;;;;;4967656;28;20023;-85
2022/12/13 01:23:36;;;;;;;39.70;15.63;;;;;;;;;;4969325;28;20476;-85
2022/12/13 01:26:03;;;;;;;41.53;15.60;;;;;;;;;;4953727;29;20035;-83
2022/12/13 01:28:29;;;;;;;34.33;14.40;;;;;;;;;;4969453;28;20083;-84
2022/12/13 01:31:00;;;;;;;31.47;13.97;;;;;;;;;;4970343;28;20030;-84
2022/12/13 01:33:27;;;;;;;31.55;12.70;;;;;;;;;;4969506;28;20051;-85
2022/12/13 01:35:53;;;;;;;32.20;14.83;;;;;;;;;;4956538;29;20086;-84
2022/12/13 01:38:19;;;;;;;37.90;14.17;;;;;;;;;;4969564;28;20566;-84
2022/12/13 01:40:58;;;;;;;34.20;13.27;;;;;;;;;;4969627;28;20025;-85
2022/12/13 01:43:28;;;;;;;47.60;16.10;;;;;;;;;;4954159;28;20022;-84
2022/12/13 01:45:54;;;;;;;34.80;13.50;;;;;;;;;;4969768;28;20459;-84
2022/12/13 01:48:28;;;;;;;37.17;15.23;;;;;;;;;;4952752;29;20034;-84
2022/12/13 01:51:00;;;;;;;36.20;14.20;;;;;;;;;;4968793;28;20038;-84
2022/12/13 01:53:35;;;;;;;54.10;15.43;;;;;;;;;;4953389;29;20043;-84
2022/12/13 01:56:05;;;;;;;43.37;16.00;;;;;;;;;;4969209;28;20027;-84
2022/12/13 01:58:33;;;;;;;27.63;13.73;;;;;;;;;;4969152;28;20837;-85
2022/12/13 02:00:59;;;;;;;37.90;15.17;;;;;;;;;;4969377;28;20058;-85
2022/12/13 02:03:25;;;;;;;40.10;14.53;;;;;;;;;;4969265;28;20031;-84
2022/12/13 02:06:02;;;;;;;40.57;13.73;;;;;;;;;;4954668;29;20027;-85
2022/12/13 02:08:28;;;;;;;35.10;13.03;;;;;;;;;;4968552;28;20082;-86
2022/12/13 02:10:56;;;;;;;37.37;13.80;;;;;;;;;;4954216;28;20035;-84
2022/12/13 02:13:22;;;;;;;33.80;15.30;;;;;;;;;;4954008;29;20031;-85
2022/12/13 02:15:53;;;;;;;44.47;14.57;;;;;;;;;;4952807;29;20178;-84
2022/12/13 02:18:46;;;;;;;34.75;13.25;;;;;;;;;;4954077;29;20100;-85
2022/12/13 02:21:35;;;;;;;37.20;12.83;;;;;;;;;;4952465;29;20055;-82
2022/12/13 02:24:32;;;;;;;33.73;12.83;;;;;;;;;;4968800;28;20035;-83
2022/12/13 02:27:20;;;;;;;31.73;14.13;;;;;;;;;;4953237;29;20023;-83
2022/12/13 02:30:21;;;;;;;35.70;13.33;;;;;;;;;;4952902;29;20031;-85
2022/12/13 02:33:10;;;;;;;34.90;14.90;;;;;;;;;;4957465;28;20527;-83
2022/12/13 02:35:53;;;;;;;31.63;12.57;;;;;;;;;;4957246;29;20087;-84
2022/12/13 02:38:43;;;;;;;37.10;14.33;;;;;;;;;;4939638;29;20134;-84
2022/12/13 02:41:44;;;;;;;34.77;14.00;;;;;;;;;;4939525;29;20015;-83
2022/12/13 02:44:18;;;;;;;31.20;13.07;;;;;;;;;;4936997;29;20471;-82
2022/12/13 02:47:04;;;;;;;31.37;14.13;;;;;;;;;;4953527;29;20031;-84
2022/12/13 02:49:33;;;;;;;32.57;11.93;;;;;;;;;;4953330;29;20031;-84
2022/12/13 02:52:00;;;;;;;40.10;14.70;;;;;;;;;;4937596;29;20023;-85
2022/12/13 02:54:26;;;;;;;38.13;14.27;;;;;;;;;;4937957;29;20057;-84
2022/12/13 02:57:00;;;;;;;32.37;12.20;;;;;;;;;;4938904;29;20067;-84
2022/12/13 02:59:32;;;;;;;40.37;14.47;;;;;;;;;;4952524;29;20055;-85
2022/12/13 03:02:28;;;;;;;44.00;15.05;;;;;;;;;;4937862;29;20384;-83
2022/12/13 03:08:00;;;;;;;34.57;13.57;;;;;;;;;;4938057;29;20056;-86
2022/12/13 03:10:33;;;;;;;28.57;14.70;;;;;;;;;;4939417;29;20027;-84
2022/12/13 03:15:58;;;;;;;33.13;13.03;;;;;;;;;;4938247;29;20102;-84
2022/12/13 03:18:27;;;;;;;25.23;11.33;;;;;;;;;;4952609;28;20031;-83
2022/12/13 03:20:58;;;;;;;28.00;12.93;;;;;;;;;;4939376;29;20055;-84
2022/12/13 03:23:24;;;;;;;29.23;13.47;;;;;;;;;;4937484;29;20023;-83
2022/12/13 03:25:53;;;;;;;31.80;13.50;;;;;;;;;;4938210;29;20266;-83
2022/12/13 03:28:20;;;;;;;27.47;12.43;;;;;;;;;;4952397;29;20023;-85
2022/12/13 03:30:45;;;;;;;33.10;12.43;;;;;;;;;;4951795;29;20036;-84
2022/12/13 03:33:11;;;;;;;25.10;12.17;;;;;;;;;;4952773;28;20038;-85
2022/12/13 03:35:39;;;;;;;35.57;12.20;;;;;;;;;;4952607;29;20439;-84
2022/12/13 03:38:04;;;;;;;34.53;12.27;;;;;;;;;;4951742;29;20032;-83
2022/12/13 03:40:32;;;;;;;33.90;12.77;;;;;;;;;;4952605;29;20084;-84
2022/12/13 03:42:58;;;;;;;34.13;11.93;;;;;;;;;;4936426;29;20024;-84
2022/12/13 03:45:27;;;;;;;28.00;12.90;;;;;;;;;;4953612;29;20079;-85
2022/12/13 03:47:53;;;;;;;29.47;12.67;;;;;;;;;;4938378;29;20036;-84
2022/12/13 03:50:18;;;;;;;29.23;12.47;;;;;;;;;;4952020;29;20141;-83
2022/12/13 03:52:46;;;;;;;35.60;14.27;;;;;;;;;;4937090;29;20365;-83
2022/12/13 03:55:12;;;;;;;50.23;13.47;;;;;;;;;;4939305;29;20307;-84
2022/12/13 03:57:43;;;;;;;35.00;10.73;;;;;;;;;;4955074;29;20033;-86
2022/12/13 04:00:10;;;;;;;32.47;11.17;;;;;;;;;;4955689;28;20076;-84
2022/12/13 04:02:35;;;;;;;34.00;12.03;;;;;;;;;;4972097;28;20082;-84
2022/12/13 04:05:04;;;;;;;29.10;10.27;;;;;;;;;;4972142;28;20601;-84
2022/12/13 04:07:38;;;;;;;32.70;11.50;;;;;;;;;;4958083;28;20046;-85
2022/12/13 04:10:20;;;;;;;34.80;13.37;;;;;;;;;;4956023;28;20091;-84
2022/12/13 04:15:29;;;;;;;24.63;11.87;;;;;;;;;;4955957;29;20045;-83
2022/12/13 04:17:55;;;;;;;29.67;13.10;;;;;;;;;;4954294;28;20059;-84
2022/12/13 04:20:20;;;;;;;39.83;13.37;;;;;;;;;;4969974;28;20032;-84
2022/12/13 04:22:46;;;;;;;24.97;11.57;;;;;;;;;;4970701;28;20069;-83
2022/12/13 04:25:11;;;;;;;34.87;12.17;;;;;;;;;;4969920;28;20119;-83
2022/12/13 04:27:37;;;;;;;39.07;12.40;;;;;;;;;;4970206;28;20034;-83
2022/12/13 04:30:07;;;;;;;32.83;12.73;;;;;;;;;;4970523;28;20073;-83
2022/12/13 04:32:32;;;;;;;37.10;12.93;;;;;;;;;;4955989;28;20497;-84
2022/12/13 04:34:58;;;;;;;26.67;11.83;;;;;;;;;;4956340;28;20051;-84
2022/12/13 04:37:23;;;;;;;40.80;12.60;;;;;;;;;;4970647;28;20031;-84
2022/12/13 04:39:49;;;;;;;35.97;13.27;;;;;;;;;;4955536;29;20039;-83
2022/12/13 04:42:15;;;;;;;30.43;11.67;;;;;;;;;;4956176;28;20083;-83
2022/12/13 04:44:40;;;;;;;30.87;12.67;;;;;;;;;;4970342;28;20467;-84
2022/12/13 04:47:06;;;;;;;30.60;12.60;;;;;;;;;;4970507;28;20027;-85
2022/12/13 04:49:32;;;;;;;31.67;12.73;;;;;;;;;;4970068;28;20027;-84
2022/12/13 04:51:57;;;;;;;26.93;11.87;;;;;;;;;;4955076;28;20505;-83
2022/12/13 04:54:23;;;;;;;28.67;11.97;;;;;;;;;;4955158;28;20031;-84
2022/12/13 04:56:50;;;;;;;23.60;11.63;;;;;;;;;;4955119;29;20015;-84
2022/12/13 04:59:16;;;;;;;27.97;10.97;;;;;;;;;;4955691;29;20027;-83
2022/12/13 05:01:41;;;;;;;30.07;12.87;;;;;;;;;;4969815;28;20059;-84
2022/12/13 05:04:07;;;;;;;26.17;11.53;;;;;;;;;;4954502;29;20069;-83
2022/12/13 05:06:32;;;;;;;24.37;11.30;;;;;;;;;;4968768;28;20061;-83
2022/12/13 05:08:58;;;;;;;32.67;12.53;;;;;;;;;;4954810;29;20054;-83
2022/12/13 05:11:24;;;;;;;33.63;12.87;;;;;;;;;;4954223;29;20033;-82
2022/12/13 05:13:49;;;;;;;39.03;11.70;;;;;;;;;;4968867;28;20078;-82
2022/12/13 05:16:15;;;;;;;33.47;12.80;;;;;;;;;;4969238;28;20114;-83
2022/12/13 05:18:41;;;;;;;27.40;13.13;;;;;;;;;;4954016;29;20038;-84
2022/12/13 05:21:09;;;;;;;40.07;14.07;;;;;;;;;;4954907;29;20034;-85
2022/12/13 05:23:35;;;;;;;34.57;12.90;;;;;;;;;;4953516;29;20089;-84
2022/12/13 05:26:01;;;;;;;31.20;13.33;;;;;;;;;;4955059;28;20114;-84
2022/12/13 05:28:28;;;;;;;26.43;11.87;;;;;;;;;;4954861;29;20036;-84
2022/12/13 05:30:55;;;;;;;33.33;14.37;;;;;;;;;;4970851;28;20062;-84
2022/12/13 05:33:21;;;;;;;32.47;12.17;;;;;;;;;;4953322;28;20059;-84
2022/12/13 05:35:47;;;;;;;33.30;12.47;;;;;;;;;;4953730;28;20031;-85
2022/12/13 05:38:12;;;;;;;30.20;11.83;;;;;;;;;;4970263;28;20526;-84
2022/12/13 05:40:38;;;;;;;41.33;12.73;;;;;;;;;;4954535;29;20085;-83
2022/12/13 05:43:04;;;;;;;28.83;10.47;;;;;;;;;;4968905;28;20049;-83
2022/12/13 05:45:30;;;;;;;27.37;10.03;;;;;;;;;;4969989;28;20181;-83
2022/12/13 05:47:55;;;;;;;41.13;13.67;;;;;;;;;;4971232;28;20113;-82
2022/12/13 05:50:21;;;;;;;37.57;13.57;;;;;;;;;;4954656;29;20127;-84
2022/12/13 05:52:46;;;;;;;27.83;12.47;;;;;;;;;;4970769;28;20583;-83
2022/12/13 05:55:12;;;;;;;29.33;12.27;;;;;;;;;;4953454;29;20062;-84
2022/12/13 05:57:38;;;;;;;27.17;11.47;;;;;;;;;;4955250;29;20043;-83
2022/12/13 06:00:06;;;;;;;31.80;12.00;;;;;;;;;;4969489;28;20355;-83
2022/12/13 06:02:36;;;;;;;29.50;10.87;;;;;;;;;;4970213;28;20490;-85
2022/12/13 06:05:02;;;;;;;25.20;10.77;;;;;;;;;;4955377;28;20113;-84
2022/12/13 06:07:27;;;;;;;34.53;11.77;;;;;;;;;;4970416;28;20506;-82
2022/12/13 06:09:53;;;;;;;44.07;14.77;;;;;;;;;;4957726;29;20030;-84
2022/12/13 06:12:18;;;;;;;29.10;12.37;;;;;;;;;;4955285;29;20368;-85
2022/12/13 06:14:44;;;;;;;40.77;15.17;;;;;;;;;;4953148;29;20023;-85
2022/12/13 06:17:10;;;;;;;40.13;12.13;;;;;;;;;;4954999;29;20027;-85
2022/12/13 06:19:36;;;;;;;25.60;12.20;;;;;;;;;;4969950;28;20050;-84
2022/12/13 06:22:01;;;;;;;32.33;11.90;;;;;;;;;;4956002;28;20256;-84
2022/12/13 06:24:27;;;;;;;25.60;11.40;;;;;;;;;;4967631;28;20026;-85
2022/12/13 06:26:57;;;;;;;20.83;10.87;;;;;;;;;;4992789;28;20085;-86
2022/12/13 06:29:23;;;;;;;25.33;12.13;;;;;;;;;;4956322;28;20102;-86
2022/12/13 06:31:51;;;;;;;23.87;11.33;;;;;;;;;;4935933;29;20087;-84
2022/12/13 06:34:17;;;;;;;25.80;11.77;;;;;;;;;;4952551;29;20038;-84
2022/12/13 06:36:42;;;;;;;23.77;11.40;;;;;;;;;;4949298;29;20027;-83
2022/12/13 06:39:08;;;;;;;30.33;11.57;;;;;;;;;;4972819;28;20035;-85
2022/12/13 06:41:35;;;;;;;28.07;12.13;;;;;;;;;;4956006;28;20015;-87
2022/12/13 06:44:04;;;;;;;34.47;12.53;;;;;;;;;;4950743;28;20078;-84
2022/12/13 06:46:30;;;;;;;32.30;13.37;;;;;;;;;;4971016;28;20252;-85
2022/12/13 06:48:56;;;;;;;42.70;12.63;;;;;;;;;;4961007;29;20031;-87
2022/12/13 06:51:21;;;;;;;27.27;11.60;;;;;;;;;;4956204;28;20027;-85
2022/12/13 06:53:47;;;;;;;30.23;11.90;;;;;;;;;;4971651;28;20031;-88
2022/12/13 06:56:13;;;;;;;39.37;12.57;;;;;;;;;;4955267;29;20050;-85
2022/12/13 06:58:40;;;;;;;36.73;14.87;;;;;;;;;;4957411;28;20027;-86
2022/12/13 07:01:07;;;;;;;33.43;11.83;;;;;;;;;;4955773;28;20031;-85
2022/12/13 07:03:34;;;;;;;37.07;14.83;;;;;;;;;;4958858;28;20222;-87
2022/12/13 07:06:04;;;;;;;39.57;14.23;;;;;;;;;;4976018;28;20034;-88
2022/12/13 07:08:30;;;;;;;34.73;13.20;;;;;;;;;;4957763;29;20031;-86
2022/12/13 07:11:02;;;;;;;35.43;14.20;;;;;;;;;;4972510;28;20588;-85
2022/12/13 07:13:32;;;;;;;33.53;12.60;;;;;;;;;;4958334;28;20038;-85
2022/12/13 07:15:59;;;;;;;28.40;11.13;;;;;;;;;;4983115;28;20395;-84
2022/12/13 07:18:25;;;;;;;30.10;12.73;;;;;;;;;;4952886;28;20499;-83
2022/12/13 07:20:50;;;;;;;42.93;12.73;;;;;;;;;;4971765;28;20046;-85
2022/12/13 07:23:19;;;;;;;36.50;15.27;;;;;;;;;;4979269;28;20041;-84
2022/12/13 07:25:52;;;;;;;32.93;13.20;;;;;;;;;;4970796;28;20039;-86
2022/12/13 07:28:18;;;;;;;31.70;13.60;;;;;;;;;;4979053;28;20483;-86
2022/12/13 07:30:45;;;;;;;32.27;13.70;;;;;;;;;;4955437;28;20420;-84
2022/12/13 07:33:11;;;;;;;34.97;11.93;;;;;;;;;;4969553;28;20471;-83
2022/12/13 07:35:37;;;;;;;30.63;12.93;;;;;;;;;;4968885;28;20062;-83
2022/12/13 07:38:07;;;;;;;32.67;13.73;;;;;;;;;;4965364;28;20110;-85
2022/12/13 07:40:37;;;;;;;38.70;12.63;;;;;;;;;;4975523;23;20054;-76
2022/12/13 07:43:04;;;;;;;34.93;10.87;;;;;;;;;;4950539;28;20047;-76
2022/12/13 07:45:30;;;;;;;51.57;16.03;;;;;;;;;;4969918;28;20037;-76
2022/12/13 07:47:56;;;;;;;33.80;14.90;;;;;;;;;;4942706;28;20046;-75
2022/12/13 07:50:22;;;;;;;30.33;13.53;;;;;;;;;;4955420;28;20321;-75
2022/12/13 07:52:49;;;;;;;28.70;11.60;;;;;;;;;;4957122;28;20042;-76
2022/12/13 07:55:16;;;;;;;27.90;12.33;;;;;;;;;;4971534;28;20035;-77
2022/12/13 07:57:45;;;;;;;33.27;13.30;;;;;;;;;;4947163;28;20034;-78
2022/12/13 08:00:11;;;;;;;33.93;12.83;;;;;;;;;;4964343;28;20045;-78
2022/12/13 08:02:38;;;;;;;37.50;14.20;;;;;;;;;;4960182;28;20041;-77
2022/12/13 08:05:04;;;;;;;33.10;13.97;;;;;;;;;;4957986;28;20035;-76
2022/12/13 08:07:29;;;;;;;33.23;12.63;;;;;;;;;;4969583;28;20104;-77
2022/12/13 08:09:55;;;;;;;31.53;12.63;;;;;;;;;;4963656;28;20034;-77
2022/12/13 08:12:21;;;;;;;36.23;13.00;;;;;;;;;;4943169;28;21342;-75
2022/12/13 08:14:47;;;;;;;41.13;15.97;;;;;;;;;;4956332;28;20189;-78
2022/12/13 08:17:12;;;;;;;25.97;12.20;;;;;;;;;;4956994;28;20609;-78
2022/12/13 08:19:38;;;;;;;35.50;12.00;;;;;;;;;;4950822;28;20039;-77
2022/12/13 08:22:04;;;;;;;32.80;14.13;;;;;;;;;;4944139;29;20488;-76
2022/12/13 08:24:30;;;;;;;32.63;12.53;;;;;;;;;;4948089;29;20066;-75
2022/12/13 08:27:01;;;;;;;36.53;12.90;;;;;;;;;;4931918;28;20039;-78
2022/12/13 08:29:29;;;;;;;27.85;12.48;;;;;;;;;;4925219;29;20554;-79
2022/12/13 08:31:54;;;;;;;39.10;13.07;;;;;;;;;;4938002;29;20476;-77
2022/12/13 08:34:20;;;;;;;32.60;12.37;;;;;;;;;;4931056;29;20038;-79
2022/12/13 08:36:46;;;;;;;36.67;13.07;;;;;;;;;;4931262;29;20074;-78
2022/12/13 08:39:12;;;;;;;38.60;14.60;;;;;;;;;;4947496;29;20034;-78
2022/12/13 08:41:38;;;;;;;35.10;15.63;;;;;;;;;;4949113;28;20082;-75
2022/12/13 08:44:07;;;;;;;28.97;13.03;;;;;;;;;;4950493;28;20062;-76
2022/12/13 08:46:32;;;;;;;37.67;12.63;;;;;;;;;;4952427;29;20031;-78
2022/12/13 08:48:58;;;;;;;35.03;13.87;;;;;;;;;;4944188;28;20039;-77
2022/12/13 08:51:25;;;;;;;30.87;12.57;;;;;;;;;;4930840;29;20031;-77
2022/12/13 08:53:50;;;;;;;55.60;16.30;;;;;;;;;;4947668;29;20035;-79
2022/12/13 08:56:20;;;;;;;30.33;12.90;;;;;;;;;;4938407;29;20023;-77
2022/12/13 08:58:50;;;;;;;31.67;12.07;;;;;;;;;;4939471;29;20039;-76
2022/12/13 09:01:16;;;;;;;32.30;13.00;;;;;;;;;;4950968;29;20038;-76
2022/12/13 09:03:41;;;;;;;30.43;14.30;;;;;;;;;;4917977;29;20122;-77
2022/12/13 09:06:09;;;;;;;35.50;15.20;;;;;;;;;;4946524;28;20514;-78
2022/12/13 09:08:36;;;;;;;40.67;15.37;;;;;;;;;;4936973;29;20043;-77
2022/12/13 09:11:02;;;;;;;24.17;12.73;;;;;;;;;;4934260;29;20590;-78
2022/12/13 09:13:30;;;;;;;41.33;15.20;;;;;;;;;;4941372;29;20054;-75
2022/12/13 09:15:55;;;;;;;46.17;15.77;;;;;;;;;;4955642;28;20022;-77
2022/12/13 09:18:21;;;;;;;33.23;14.80;;;;;;;;;;4952161;28;20031;-75
2022/12/13 09:20:47;;;;;;;44.27;14.17;;;;;;;;;;4952600;28;20019;-79
2022/12/13 09:23:15;;;;;;;39.30;14.77;;;;;;;;;;4950181;29;20093;-80
2022/12/13 09:25:41;;;;;;;32.50;14.03;;;;;;;;;;4934550;29;20059;-78
2022/12/13 09:28:08;;;;;;;40.90;15.40;;;;;;;;;;4944666;29;20550;-78
2022/12/13 09:30:37;;;;;;;36.47;13.20;;;;;;;;;;4931124;29;20122;-77
2022/12/13 09:33:03;;;;;;;53.73;19.37;;;;;;;;;;4953013;28;20990;-76
2022/12/13 09:35:30;;;;;;;33.17;14.40;;;;;;;;;;4948352;28;20033;-77
2022/12/13 09:37:55;;;;;;;33.70;14.47;;;;;;;;;;4948262;28;20484;-77
2022/12/13 09:40:25;;;;;;;39.57;14.77;;;;;;;;;;4935574;28;20085;-77
2022/12/13 09:42:54;;;;;;;31.93;13.27;;;;;;;;;;4939591;28;20035;-77
2022/12/13 09:45:20;;;;;;;37.13;14.83;;;;;;;;;;4948110;28;20034;-76
2022/12/13 09:47:48;;;;;;;31.70;13.07;;;;;;;;;;4945905;28;20035;-78
2022/12/13 09:50:26;;;;;;;38.50;13.77;;;;;;;;;;4927985;29;20041;-76
2022/12/13 09:52:53;;;;;;;32.93;14.97;;;;;;;;;;4944759;28;20744;-77
2022/12/13 09:55:28;;;;;;;32.50;13.37;;;;;;;;;;4929320;29;20050;-76
2022/12/13 09:57:55;;;;;;;33.77;13.97;;;;;;;;;;4951250;28;20049;-77
2022/12/13 10:00:27;;;;;;;31.93;12.47;;;;;;;;;;4944081;29;20027;-78
2022/12/13 10:02:57;;;;;;;33.17;13.13;;;;;;;;;;4949552;28;20460;-74
2022/12/13 10:05:31;;;;;;;33.83;13.13;;;;;;;;;;4932978;29;20047;-78
2022/12/13 10:08:00;;;;;;;34.30;12.73;;;;;;;;;;4948003;28;20047;-75
2022/12/13 10:10:27;;;;;;;29.97;11.07;;;;;;;;;;4947736;28;20122;-77
2022/12/13 10:13:24;;;;;;;32.20;15.10;;;;;;;;;;4934666;29;20114;-78
2022/12/13 10:16:03;;;;;;;31.33;12.00;;;;;;;;;;4929059;28;20054;-79
2022/12/13 10:18:35;;;;;;;36.53;15.37;;;;;;;;;;4942769;29;20036;-77
2022/12/13 10:21:08;;;;;;;35.05;13.38;;;;;;;;;;4950694;28;20027;-79
2022/12/13 10:23:34;;;;;;;34.27;14.00;;;;;;;;;;4955642;28;20031;-78
2022/12/13 10:26:07;;;;;;;32.63;13.43;;;;;;;;;;4949766;29;20138;-76
2022/12/13 10:28:32;;;;;;;;;;;;;;;;;;4929433;29;20114;-78
2022/12/13 10:31:00;;;;;;;31.90;11.30;;;;;;;;;;4948377;28;20057;-75
2022/12/13 10:33:35;;;;;;;30.67;12.80;;;;;;;;;;4949236;29;20027;-77
2022/12/13 10:36:33;;;;;;;37.97;15.47;;;;;;;;;;4947708;28;20122;-76
2022/12/13 10:38:59;;;;;;;35.83;13.90;;;;;;;;;;4946799;28;20016;-77
2022/12/13 10:41:33;;;;;;;36.53;13.90;;;;;;;;;;4945066;29;20050;-77
2022/12/13 10:44:26;;;;;;;32.20;13.83;;;;;;;;;;4941421;29;20027;-76
2022/12/13 10:47:03;;;;;;;43.67;15.17;;;;;;;;;;4937395;28;20040;-76
2022/12/13 10:49:36;;;;;;;41.10;15.07;;;;;;;;;;4938829;29;20110;-78
2022/12/13 10:52:02;;;;;;;34.73;14.10;;;;;;;;;;4944229;28;20784;-77
2022/12/13 10:54:31;;;;;;;36.83;15.33;;;;;;;;;;4939937;29;20035;-78
2022/12/13 10:57:01;;;;;;;34.90;13.17;;;;;;;;;;4948319;29;20110;-77
2022/12/13 10:59:30;;;;;;;37.50;13.97;;;;;;;;;;4948502;29;20029;-78
2022/12/13 11:01:56;;;;;;;43.97;15.50;;;;;;;;;;4948432;29;20441;-78
2022/12/13 11:04:28;;;;;;;45.70;17.57;;;;;;;;;;4948448;29;20031;-77
2022/12/13 11:06:55;;;;;;;51.75;17.95;;;;;;;;;;4951716;28;20023;-78
2022/12/13 11:09:30;;;;;;;36.33;14.63;;;;;;;;;;4938288;28;20074;-76
2022/12/13 11:12:00;;;;;;;46.47;16.60;;;;;;;;;;4948220;29;20487;-76
2022/12/13 11:14:30;;;;;;;38.23;13.43;;;;;;;;;;4941120;29;20033;-77
2022/12/13 11:17:18;;;;;;;38.10;14.57;;;;;;;;;;4934947;29;20034;-76
2022/12/13 11:20:05;;;;;;;32.57;15.77;;;;;;;;;;4948294;29;20504;-75
2022/12/13 11:22:36;;;;;;;39.77;18.47;;;;;;;;;;4934009;29;20058;-77
2022/12/13 11:25:20;;;;;;;29.53;13.37;;;;;;;;;;4952585;28;20027;-76
2022/12/13 11:28:11;;;;;;;42.10;15.70;;;;;;;;;;4952786;28;20491;-77
2022/12/13 11:31:05;;;;;;;34.70;14.20;;;;;;;;;;4951574;28;20129;-76
2022/12/13 11:33:53;;;;;;;36.23;14.27;;;;;;;;;;4926173;29;20028;-76
2022/12/13 11:36:30;;;;;;;41.63;14.87;;;;;;;;;;4903680;29;20086;-76
2022/12/13 11:39:09;;;;;;;32.53;13.90;;;;;;;;;;4950600;29;20035;-78
2022/12/13 11:41:42;;;;;;;40.73;14.60;;;;;;;;;;4943300;28;20043;-79
2022/12/13 11:44:26;;;;;;;49.20;17.00;;;;;;;;;;4929756;29;20039;-78
2022/12/13 11:47:17;;;;;;;34.17;12.27;;;;;;;;;;4926495;29;20035;-77
2022/12/13 11:49:57;;;;;;;35.00;13.67;;;;;;;;;;4947544;28;20043;-78
2022/12/13 11:52:59;;;;;;;41.77;16.30;;;;;;;;;;4939195;28;20035;-77
2022/12/13 11:56:27;;;;;;;41.33;14.90;;;;;;;;;;4928801;29;20122;-78
2022/12/13 11:59:29;;;;;;;34.40;14.13;;;;;;;;;;4950536;28;20027;-78
2022/12/13 12:02:05;;;;;;;30.00;12.60;;;;;;;;;;4924189;29;20038;-79
2022/12/13 12:04:59;;;;;;;31.63;14.17;;;;;;;;;;4951327;28;20476;-76
2022/12/13 12:07:53;;;;;;;35.13;13.33;;;;;;;;;;4941638;29;20388;-76
2022/12/13 12:10:37;;;;;;;30.73;13.33;;;;;;;;;;4939186;28;20039;-78
2022/12/13 12:13:39;;;;;;;37.07;13.30;;;;;;;;;;4943831;28;20086;-79
2022/12/13 12:16:18;;;;;;;41.47;13.20;;;;;;;;;;4932666;29;20301;-76
2022/12/13 12:18:52;;;;;;;40.73;15.10;;;;;;;;;;4961060;28;20058;-75
2022/12/13 12:21:47;;;;;;;33.37;13.77;;;;;;;;;;4945031;28;20057;-78
2022/12/13 12:24:25;;;;;;;37.80;14.97;;;;;;;;;;4941263;28;20049;-75
2022/12/13 12:27:10;;;;;;;40.03;15.10;;;;;;;;;;4929909;29;20027;-79
2022/12/13 12:30:08;;;;;;;39.97;15.13;;;;;;;;;;4946860;29;20557;-78
2022/12/13 12:33:10;;;;;;;32.13;12.70;;;;;;;;;;4948057;29;20023;-79
2022/12/13 12:35:58;;;;;;;36.30;13.67;;;;;;;;;;4933669;28;20745;-76
2022/12/13 12:39:19;;;;;;;39.20;14.90;;;;;;;;;;4950451;28;20074;-77
2022/12/13 12:42:01;;;;;;;38.50;14.53;;;;;;;;;;4956187;28;20051;-77
2022/12/13 12:44:33;;;;;;;;;;;;;;;;;;4940638;29;20444;-77
2022/12/13 12:47:29;;;;;;;32.88;13.55;;;;;;;;;;4927503;29;20294;-76
2022/12/13 12:50:10;;;;;;;43.13;16.37;;;;;;;;;;4948112;28;20144;-78
2022/12/13 12:52:54;;;;;;;37.63;15.60;;;;;;;;;;4946274;28;20063;-78
2022/12/13 12:55:48;;;;;;;39.47;15.13;;;;;;;;;;4936922;29;20026;-76
2022/12/13 12:58:27;;;;;;;44.20;16.50;;;;;;;;;;4953052;28;20114;-77
2022/12/13 13:01:28;;;;;;;46.67;15.87;;;;;;;;;;4946729;29;20074;-76
2022/12/13 13:04:00;;;;;;;26.83;13.13;;;;;;;;;;4942182;28;20030;-80
2022/12/13 13:06:42;;;;;;;41.20;15.88;;;;;;;;;;4947395;29;20277;-76
2022/12/13 13:09:11;;;;;;;38.60;15.50;;;;;;;;;;4951539;29;20058;-78
2022/12/13 13:11:42;;;;;;;46.67;15.70;;;;;;;;;;4934611;29;20119;-79
2022/12/13 13:14:42;;;;;;;32.03;14.57;;;;;;;;;;4938125;29;20027;-77
2022/12/13 13:18:22;;;;;;;45.63;15.50;;;;;;;;;;4948042;28;20349;-80
2022/12/13 13:21:30;;;;;;;29.97;12.43;;;;;;;;;;4945958;29;20054;-80
2022/12/13 13:24:09;;;;;;;39.40;14.10;;;;;;;;;;4960865;28;20114;-77
2022/12/13 13:26:44;;;;;;;30.03;12.17;;;;;;;;;;4927341;29;20393;-78
2022/12/13 13:29:54;;;;;;;39.97;16.03;;;;;;;;;;4937837;28;20058;-77
2022/12/13 13:32:32;;;;;;;33.77;12.63;;;;;;;;;;4929651;28;20054;-78
2022/12/13 13:35:38;;;;;;;37.30;15.37;;;;;;;;;;4930546;29;20542;-78
2022/12/13 13:38:50;;;;;;;41.07;15.23;;;;;;;;;;4948205;28;20472;-75
2022/12/13 13:41:54;;;;;;;41.97;15.53;;;;;;;;;;4942386;28;20047;-77
2022/12/13 13:44:36;;;;;;;51.73;17.20;;;;;;;;;;4937943;28;20061;-77
2022/12/13 13:47:27;;;;;;;;;;;;;;;;;;4944908;28;20031;-77
2022/12/13 13:49:59;;;;;;;37.87;15.77;;;;;;;;;;4944036;28;20327;-78
2022/12/13 13:56:37;;;;;;;50.77;18.67;;;;;;;;;;4897056;29;20059;-77
2022/12/13 13:59:47;;;;;;;40.03;17.43;;;;;;;;;;4933834;29;20448;-77
2022/12/13 14:02:26;;;;;;;45.00;14.20;;;;;;;;;;4918460;29;20043;-75
2022/12/13 14:05:32;;;;;;;40.23;16.30;;;;;;;;;;4931810;29;20167;-78
2022/12/13 14:08:34;;;;;;;42.87;16.67;;;;;;;;;;4950442;28;20039;-76
2022/12/13 14:11:18;;;;;;;56.13;17.73;;;;;;;;;;4941665;29;20027;-76
2022/12/13 14:14:18;;;;;;;41.57;14.97;;;;;;;;;;4948396;28;20031;-77
2022/12/13 14:17:11;;;;;;;32.43;14.60;;;;;;;;;;4945093;29;20552;-78
2022/12/13 14:20:14;;;;;;;78.17;22.67;;;;;;;;;;4928120;29;20121;-78
2022/12/13 14:22:40;;;;;;;39.03;15.83;;;;;;;;;;4942970;29;20027;-76
2022/12/13 14:25:25;;;;;;;44.70;17.53;;;;;;;;;;4932043;29;20031;-74
2022/12/13 14:28:04;;;;;;;45.40;15.23;;;;;;;;;;4938035;29;20042;-77
2022/12/13 14:30:36;;;;;;;36.83;14.67;;;;;;;;;;4941883;28;20082;-78
2022/12/13 14:33:28;;;;;;;40.70;16.45;;;;;;;;;;4950521;29;20027;-78
2022/12/13 14:36:06;;;;;;;47.90;16.73;;;;;;;;;;4947227;29;20050;-76
2022/12/13 14:38:32;;;;;;;41.27;16.27;;;;;;;;;;4933297;29;20472;-79
2022/12/13 14:41:06;;;;;;;44.53;16.97;;;;;;;;;;4952555;29;20055;-77
2022/12/13 14:43:39;;;;;;;41.93;16.20;;;;;;;;;;4952902;29;20449;-77
2022/12/13 14:46:15;;;;;;;45.43;18.93;;;;;;;;;;4950049;29;20031;-77
2022/12/13 14:48:57;;;;;;;35.67;14.97;;;;;;;;;;4947703;28;20034;-78
2022/12/13 14:51:44;;;;;;;52.65;18.08;;;;;;;;;;4942062;29;20035;-77
2022/12/13 14:54:19;;;;;;;42.37;14.03;;;;;;;;;;4944712;28;20035;-78
2022/12/13 14:57:06;;;;;;;43.83;17.23;;;;;;;;;;4949761;29;20046;-77
2022/12/13 14:59:55;;;;;;;37.57;14.87;;;;;;;;;;4949906;28;20075;-77
2022/12/13 15:02:34;;;;;;;43.83;15.10;;;;;;;;;;4935562;28;20027;-77
2022/12/13 15:05:04;;;;;;;42.20;16.27;;;;;;;;;;4945179;29;20031;-80